sensor_id;sensor_type;location;lat;lon;timestamp;temperature;humidity
33927;DHT22;20485;50.992;5.550;2023-04-03T00:00:42;0.60;99.90
33927;DHT22;20485;50.992;5.550;2023-04-03T00:03:08;0.50;99.90
33927;DHT22;20485;50.992;5.550;2023-04-03T00:05:34;0.50;99.90
33927;DHT22;20485;50.992;5.550;2023-04-03T00:08:00;0.50;99.90
33927;DHT22;20485;50.992;5.550;2023-04-03T00:10:27;0.40;99.90
33927;DHT22;20485;50.992;5.550;2023-04-03T00:12:53;0.70;99.90
33927;DHT22;20485;50.992;5.550;2023-04-03T00:15:20;0.30;99.90
33927;DHT22;20485;50.992;5.550;2023-04-03T00:17:46;0.30;99.90
33927;DHT22;20485;50.992;5.550;2023-04-03T00:20:12;0.40;99.90
33927;DHT22;20485;50.992;5.550;2023-04-03T00:22:38;0.40;99.90
33927;DHT22;20485;50.992;5.550;2023-04-03T00:25:04;0.20;99.90
33927;DHT22;20485;50.992;5.550;2023-04-03T00:27:30;0.20;99.90
33927;DHT22;20485;50.992;5.550;2023-04-03T00:29:55;0.20;99.90
33927;DHT22;20485;50.992;5.550;2023-04-03T00:32:21;0.20;99.90
33927;DHT22;20485;50.992;5.550;2023-04-03T00:34:47;0.10;99.90
33927;DHT22;20485;50.992;5.550;2023-04-03T00:37:16;0.20;99.90
33927;DHT22;20485;50.992;5.550;2023-04-03T00:39:41;0.20;99.90
33927;DHT22;20485;50.992;5.550;2023-04-03T00:42:07;0.10;99.90
33927;DHT22;20485;50.992;5.550;2023-04-03T00:46:59;0.10;99.90
33927;DHT22;20485;50.992;5.550;2023-04-03T00:49:26;0.10;99.90
33927;DHT22;20485;50.992;5.550;2023-04-03T00:51:52;0.00;99.90
33927;DHT22;20485;50.992;5.550;2023-04-03T00:54:19;0.00;99.90
33927;DHT22;20485;50.992;5.550;2023-04-03T00:56:45;-0.10;99.90
33927;DHT22;20485;50.992;5.550;2023-04-03T00:59:18;0.00;99.90
33927;DHT22;20485;50.992;5.550;2023-04-03T01:01:48;0.00;99.90
33927;DHT22;20485;50.992;5.550;2023-04-03T01:04:28;0.00;99.90
33927;DHT22;20485;50.992;5.550;2023-04-03T01:06:58;-0.10;99.90
33927;DHT22;20485;50.992;5.550;2023-04-03T01:09:25;-0.10;99.90
33927;DHT22;20485;50.992;5.550;2023-04-03T01:11:51;1.20;99.90
33927;DHT22;20485;50.992;5.550;2023-04-03T01:14:17;1.00;99.90
33927;DHT22;20485;50.992;5.550;2023-04-03T01:16:54;-0.20;99.90
33927;DHT22;20485;50.992;5.550;2023-04-03T01:19:23;-0.20;99.90
33927;DHT22;20485;50.992;5.550;2023-04-03T01:25:22;-0.20;99.90
33927;DHT22;20485;50.992;5.550;2023-04-03T01:27:38;-0.30;99.90
33927;DHT22;20485;50.992;5.550;2023-04-03T01:30:04;-0.30;99.90
33927;DHT22;20485;50.992;5.550;2023-04-03T01:32:32;-0.40;99.90
33927;DHT22;20485;50.992;5.550;2023-04-03T01:34:58;-0.40;99.90
33927;DHT22;20485;50.992;5.550;2023-04-03T01:37:24;-0.40;99.90
33927;DHT22;20485;50.992;5.550;2023-04-03T01:39:50;-0.40;99.90
33927;DHT22;20485;50.992;5.550;2023-04-03T01:42:16;-0.50;99.90
33927;DHT22;20485;50.992;5.550;2023-04-03T01:44:41;-0.40;99.90
33927;DHT22;20485;50.992;5.550;2023-04-03T01:47:07;-0.40;99.90
33927;DHT22;20485;50.992;5.550;2023-04-03T01:49:33;-0.40;99.90
33927;DHT22;20485;50.992;5.550;2023-04-03T01:51:59;-0.40;99.90
33927;DHT22;20485;50.992;5.550;2023-04-03T01:54:27;0.50;99.90
33927;DHT22;20485;50.992;5.550;2023-04-03T01:56:56;-0.50;99.90
33927;DHT22;20485;50.992;5.550;2023-04-03T01:59:22;1.00;99.90
33927;DHT22;20485;50.992;5.550;2023-04-03T02:01:48;-0.50;99.90
33927;DHT22;20485;50.992;5.550;2023-04-03T02:04:14;-0.50;99.90
33927;DHT22;20485;50.992;5.550;2023-04-03T02:09:30;-0.50;99.90
33927;DHT22;20485;50.992;5.550;2023-04-03T02:11:55;-0.60;99.90
33927;DHT22;20485;50.992;5.550;2023-04-03T02:14:21;-0.50;99.90
33927;DHT22;20485;50.992;5.550;2023-04-03T02:16:49;-0.50;99.90
33927;DHT22;20485;50.992;5.550;2023-04-03T02:19:15;-0.50;99.90
33927;DHT22;20485;50.992;5.550;2023-04-03T02:21:41;-0.50;99.90
33927;DHT22;20485;50.992;5.550;2023-04-03T02:24:07;-0.50;99.90
33927;DHT22;20485;50.992;5.550;2023-04-03T02:26:33;-0.20;99.90
33927;DHT22;20485;50.992;5.550;2023-04-03T02:28:59;-0.50;99.90
33927;DHT22;20485;50.992;5.550;2023-04-03T02:31:25;-0.50;99.90
33927;DHT22;20485;50.992;5.550;2023-04-03T02:33:51;-0.60;99.90
33927;DHT22;20485;50.992;5.550;2023-04-03T02:36:17;-0.60;99.90
33927;DHT22;20485;50.992;5.550;2023-04-03T02:38:43;-0.70;99.90
33927;DHT22;20485;50.992;5.550;2023-04-03T02:41:11;-0.70;99.90
33927;DHT22;20485;50.992;5.550;2023-04-03T02:43:38;-0.50;99.90
33927;DHT22;20485;50.992;5.550;2023-04-03T02:46:04;-0.70;99.90
33927;DHT22;20485;50.992;5.550;2023-04-03T02:48:31;-0.70;99.90
33927;DHT22;20485;50.992;5.550;2023-04-03T02:50:56;-0.60;99.90
33927;DHT22;20485;50.992;5.550;2023-04-03T02:53:22;-0.70;99.90
33927;DHT22;20485;50.992;5.550;2023-04-03T02:55:57;-0.70;99.90
33927;DHT22;20485;50.992;5.550;2023-04-03T02:58:23;-0.80;99.90
33927;DHT22;20485;50.992;5.550;2023-04-03T03:00:52;-0.80;99.90
33927;DHT22;20485;50.992;5.550;2023-04-03T03:03:18;-0.90;99.90
33927;DHT22;20485;50.992;5.550;2023-04-03T03:05:47;-0.80;99.90
33927;DHT22;20485;50.992;5.550;2023-04-03T03:08:13;0.60;99.90
33927;DHT22;20485;50.992;5.550;2023-04-03T03:10:39;-0.90;99.90
33927;DHT22;20485;50.992;5.550;2023-04-03T03:13:05;-0.90;99.90
33927;DHT22;20485;50.992;5.550;2023-04-03T03:15:31;-0.80;99.90
33927;DHT22;20485;50.992;5.550;2023-04-03T03:17:57;-0.80;99.90
33927;DHT22;20485;50.992;5.550;2023-04-03T03:20:28;-0.80;99.90
33927;DHT22;20485;50.992;5.550;2023-04-03T03:22:54;-0.90;99.90
33927;DHT22;20485;50.992;5.550;2023-04-03T03:25:20;-0.90;99.90
33927;DHT22;20485;50.992;5.550;2023-04-03T03:27:46;-0.80;99.90
33927;DHT22;20485;50.992;5.550;2023-04-03T03:30:17;-0.90;99.90
33927;DHT22;20485;50.992;5.550;2023-04-03T03:32:43;-0.90;99.90
33927;DHT22;20485;50.992;5.550;2023-04-03T03:35:09;-0.30;99.90
33927;DHT22;20485;50.992;5.550;2023-04-03T03:37:35;-0.90;99.90
33927;DHT22;20485;50.992;5.550;2023-04-03T03:40:00;-0.90;99.90
33927;DHT22;20485;50.992;5.550;2023-04-03T03:42:26;-0.90;99.90
33927;DHT22;20485;50.992;5.550;2023-04-03T03:44:52;-0.90;99.90
33927;DHT22;20485;50.992;5.550;2023-04-03T03:47:18;-1.00;99.90
33927;DHT22;20485;50.992;5.550;2023-04-03T03:49:44;-1.00;99.90
33927;DHT22;20485;50.992;5.550;2023-04-03T03:52:09;-1.00;99.90
33927;DHT22;20485;50.992;5.550;2023-04-03T03:54:36;-1.00;99.90
33927;DHT22;20485;50.992;5.550;2023-04-03T03:57:05;-1.00;99.90
33927;DHT22;20485;50.992;5.550;2023-04-03T03:59:34;-0.90;99.90
33927;DHT22;20485;50.992;5.550;2023-04-03T04:01:59;-0.90;99.90
33927;DHT22;20485;50.992;5.550;2023-04-03T04:04:25;-0.90;99.90
33927;DHT22;20485;50.992;5.550;2023-04-03T04:06:51;-1.00;99.90
33927;DHT22;20485;50.992;5.550;2023-04-03T04:09:17;-0.90;99.90
33927;DHT22;20485;50.992;5.550;2023-04-03T04:11:43;-1.00;99.90
33927;DHT22;20485;50.992;5.550;2023-04-03T04:14:10;-1.10;99.90
33927;DHT22;20485;50.992;5.550;2023-04-03T04:16:42;-1.10;99.90
33927;DHT22;20485;50.992;5.550;2023-04-03T04:19:08;-1.20;99.90
33927;DHT22;20485;50.992;5.550;2023-04-03T04:21:33;-1.20;99.90
33927;DHT22;20485;50.992;5.550;2023-04-03T04:24:00;-1.20;99.90
33927;DHT22;20485;50.992;5.550;2023-04-03T04:26:25;-1.20;99.90
33927;DHT22;20485;50.992;5.550;2023-04-03T04:28:51;-1.10;99.90
33927;DHT22;20485;50.992;5.550;2023-04-03T04:31:17;-1.10;99.90
33927;DHT22;20485;50.992;5.550;2023-04-03T04:33:42;-1.10;99.90
33927;DHT22;20485;50.992;5.550;2023-04-03T04:36:08;-1.10;99.90
33927;DHT22;20485;50.992;5.550;2023-04-03T04:38:34;-1.10;99.90
33927;DHT22;20485;50.992;5.550;2023-04-03T04:41:00;-1.10;99.90
33927;DHT22;20485;50.992;5.550;2023-04-03T04:43:26;-1.10;99.90
33927;DHT22;20485;50.992;5.550;2023-04-03T04:46:05;-1.20;99.90
33927;DHT22;20485;50.992;5.550;2023-04-03T04:48:32;-1.20;99.90
33927;DHT22;20485;50.992;5.550;2023-04-03T04:50:58;-1.20;99.90
33927;DHT22;20485;50.992;5.550;2023-04-03T04:53:23;-1.10;99.90
33927;DHT22;20485;50.992;5.550;2023-04-03T04:55:49;-1.00;99.90
33927;DHT22;20485;50.992;5.550;2023-04-03T04:58:15;-1.10;99.90
33927;DHT22;20485;50.992;5.550;2023-04-03T05:00:41;-1.10;99.90
33927;DHT22;20485;50.992;5.550;2023-04-03T05:03:07;-1.00;99.90
33927;DHT22;20485;50.992;5.550;2023-04-03T05:05:32;-1.00;99.90
33927;DHT22;20485;50.992;5.550;2023-04-03T05:07:58;-0.90;99.90
33927;DHT22;20485;50.992;5.550;2023-04-03T05:10:23;-0.80;99.90
33927;DHT22;20485;50.992;5.550;2023-04-03T05:12:49;-0.70;99.90
33927;DHT22;20485;50.992;5.550;2023-04-03T05:15:15;-0.70;99.90
33927;DHT22;20485;50.992;5.550;2023-04-03T05:17:40;-0.70;99.90
33927;DHT22;20485;50.992;5.550;2023-04-03T05:20:16;-0.70;99.90
33927;DHT22;20485;50.992;5.550;2023-04-03T05:22:42;-0.70;99.90
33927;DHT22;20485;50.992;5.550;2023-04-03T05:25:08;-0.60;99.90
33927;DHT22;20485;50.992;5.550;2023-04-03T05:27:34;-0.60;99.90
33927;DHT22;20485;50.992;5.550;2023-04-03T05:30:00;-0.50;99.90
33927;DHT22;20485;50.992;5.550;2023-04-03T05:32:25;-0.50;99.90
33927;DHT22;20485;50.992;5.550;2023-04-03T05:34:55;-0.50;99.90
33927;DHT22;20485;50.992;5.550;2023-04-03T05:37:21;-0.60;99.90
33927;DHT22;20485;50.992;5.550;2023-04-03T05:39:47;-0.60;99.90
33927;DHT22;20485;50.992;5.550;2023-04-03T05:42:16;-0.70;99.90
33927;DHT22;20485;50.992;5.550;2023-04-03T05:44:42;-0.70;99.90
33927;DHT22;20485;50.992;5.550;2023-04-03T05:47:08;-0.70;99.90
33927;DHT22;20485;50.992;5.550;2023-04-03T05:49:35;-0.70;99.90
33927;DHT22;20485;50.992;5.550;2023-04-03T05:52:01;-0.70;99.90
33927;DHT22;20485;50.992;5.550;2023-04-03T05:54:29;-0.60;99.90
33927;DHT22;20485;50.992;5.550;2023-04-03T05:56:55;2.00;99.90
33927;DHT22;20485;50.992;5.550;2023-04-03T05:59:21;-0.60;99.90
33927;DHT22;20485;50.992;5.550;2023-04-03T06:01:48;-0.50;99.90
33927;DHT22;20485;50.992;5.550;2023-04-03T06:04:14;0.90;99.90
33927;DHT22;20485;50.992;5.550;2023-04-03T06:06:53;-0.30;99.90
33927;DHT22;20485;50.992;5.550;2023-04-03T06:09:21;-0.40;99.90
33927;DHT22;20485;50.992;5.550;2023-04-03T06:11:47;-0.30;99.90
33927;DHT22;20485;50.992;5.550;2023-04-03T06:14:17;-0.30;99.90
33927;DHT22;20485;50.992;5.550;2023-04-03T06:16:43;-0.20;99.90
33927;DHT22;20485;50.992;5.550;2023-04-03T06:19:11;-0.20;99.90
33927;DHT22;20485;50.992;5.550;2023-04-03T06:21:37;-0.20;99.90
33927;DHT22;20485;50.992;5.550;2023-04-03T06:24:04;-0.10;99.90
33927;DHT22;20485;50.992;5.550;2023-04-03T06:26:30;-0.10;99.90
33927;DHT22;20485;50.992;5.550;2023-04-03T06:28:57;0.00;99.90
33927;DHT22;20485;50.992;5.550;2023-04-03T06:31:23;0.10;99.90
33927;DHT22;20485;50.992;5.550;2023-04-03T06:33:48;0.10;99.90
33927;DHT22;20485;50.992;5.550;2023-04-03T06:38:45;0.30;99.90
33927;DHT22;20485;50.992;5.550;2023-04-03T06:41:11;1.80;99.90
33927;DHT22;20485;50.992;5.550;2023-04-03T06:43:37;0.50;99.90
33927;DHT22;20485;50.992;5.550;2023-04-03T06:46:02;0.70;99.90
33927;DHT22;20485;50.992;5.550;2023-04-03T06:48:28;0.70;99.90
33927;DHT22;20485;50.992;5.550;2023-04-03T06:50:54;0.90;99.90
33927;DHT22;20485;50.992;5.550;2023-04-03T06:53:20;1.00;99.90
33927;DHT22;20485;50.992;5.550;2023-04-03T06:55:46;1.10;99.90
33927;DHT22;20485;50.992;5.550;2023-04-03T06:58:12;1.20;99.90
33927;DHT22;20485;50.992;5.550;2023-04-03T07:00:39;1.30;99.90
33927;DHT22;20485;50.992;5.550;2023-04-03T07:03:04;1.30;99.90
33927;DHT22;20485;50.992;5.550;2023-04-03T07:05:30;1.40;99.90
33927;DHT22;20485;50.992;5.550;2023-04-03T07:07:57;1.40;99.90
33927;DHT22;20485;50.992;5.550;2023-04-03T07:10:23;1.50;99.90
33927;DHT22;20485;50.992;5.550;2023-04-03T07:12:49;2.40;99.90
33927;DHT22;20485;50.992;5.550;2023-04-03T07:15:14;1.60;99.90
33927;DHT22;20485;50.992;5.550;2023-04-03T07:17:40;1.70;99.90
33927;DHT22;20485;50.992;5.550;2023-04-03T07:20:07;1.80;99.90
33927;DHT22;20485;50.992;5.550;2023-04-03T07:22:33;1.90;99.90
33927;DHT22;20485;50.992;5.550;2023-04-03T07:24:59;1.90;99.90
33927;DHT22;20485;50.992;5.550;2023-04-03T07:27:25;1.90;99.90
33927;DHT22;20485;50.992;5.550;2023-04-03T07:29:51;2.00;99.90
33927;DHT22;20485;50.992;5.550;2023-04-03T07:32:17;3.90;99.90
33927;DHT22;20485;50.992;5.550;2023-04-03T07:34:43;2.70;99.90
33927;DHT22;20485;50.992;5.550;2023-04-03T07:37:09;2.20;99.90
33927;DHT22;20485;50.992;5.550;2023-04-03T07:39:35;2.30;99.90
33927;DHT22;20485;50.992;5.550;2023-04-03T07:42:02;2.30;99.90
33927;DHT22;20485;50.992;5.550;2023-04-03T07:44:28;2.40;99.90
33927;DHT22;20485;50.992;5.550;2023-04-03T07:46:54;2.50;99.90
33927;DHT22;20485;50.992;5.550;2023-04-03T07:49:21;2.60;99.90
33927;DHT22;20485;50.992;5.550;2023-04-03T07:51:49;2.60;99.90
33927;DHT22;20485;50.992;5.550;2023-04-03T07:54:15;2.70;99.90
33927;DHT22;20485;50.992;5.550;2023-04-03T07:56:41;2.70;99.90
33927;DHT22;20485;50.992;5.550;2023-04-03T07:59:08;4.00;99.90
33927;DHT22;20485;50.992;5.550;2023-04-03T08:01:34;2.80;99.90
33927;DHT22;20485;50.992;5.550;2023-04-03T08:04:00;2.90;99.90
33927;DHT22;20485;50.992;5.550;2023-04-03T08:06:26;2.90;99.90
33927;DHT22;20485;50.992;5.550;2023-04-03T08:08:52;2.90;99.90
33927;DHT22;20485;50.992;5.550;2023-04-03T08:11:18;3.10;99.90
33927;DHT22;20485;50.992;5.550;2023-04-03T08:13:44;3.10;99.90
33927;DHT22;20485;50.992;5.550;2023-04-03T08:16:17;3.20;99.90
33927;DHT22;20485;50.992;5.550;2023-04-03T08:18:43;3.30;99.90
33927;DHT22;20485;50.992;5.550;2023-04-03T08:21:10;3.30;99.90
33927;DHT22;20485;50.992;5.550;2023-04-03T08:23:38;3.40;99.90
33927;DHT22;20485;50.992;5.550;2023-04-03T08:26:22;3.40;99.90
33927;DHT22;20485;50.992;5.550;2023-04-03T08:28:48;3.50;99.90
33927;DHT22;20485;50.992;5.550;2023-04-03T08:31:17;3.60;99.90
33927;DHT22;20485;50.992;5.550;2023-04-03T08:33:46;3.70;99.90
33927;DHT22;20485;50.992;5.550;2023-04-03T08:36:22;3.90;99.90
33927;DHT22;20485;50.992;5.550;2023-04-03T08:38:49;3.90;99.90
33927;DHT22;20485;50.992;5.550;2023-04-03T08:41:24;3.90;99.90
33927;DHT22;20485;50.992;5.550;2023-04-03T08:49:42;4.30;99.90
33927;DHT22;20485;50.992;5.550;2023-04-03T08:52:37;4.30;99.90
33927;DHT22;20485;50.992;5.550;2023-04-03T08:55:07;4.30;99.90
33927;DHT22;20485;50.992;5.550;2023-04-03T08:57:35;4.40;99.90
33927;DHT22;20485;50.992;5.550;2023-04-03T09:00:14;4.60;99.90
33927;DHT22;20485;50.992;5.550;2023-04-03T09:02:46;4.70;99.90
33927;DHT22;20485;50.992;5.550;2023-04-03T09:05:16;4.60;99.90
33927;DHT22;20485;50.992;5.550;2023-04-03T09:07:53;4.60;99.90
33927;DHT22;20485;50.992;5.550;2023-04-03T09:10:27;4.60;99.90
33927;DHT22;20485;50.992;5.550;2023-04-03T09:15:48;4.60;99.90
33927;DHT22;20485;50.992;5.550;2023-04-03T09:18:23;4.80;99.90
33927;DHT22;20485;50.992;5.550;2023-04-03T09:23:50;4.80;99.90
33927;DHT22;20485;50.992;5.550;2023-04-03T09:26:44;4.90;99.90
33927;DHT22;20485;50.992;5.550;2023-04-03T09:29:16;5.00;99.90
33927;DHT22;20485;50.992;5.550;2023-04-03T09:31:44;5.30;99.90
33927;DHT22;20485;50.992;5.550;2023-04-03T09:34:24;5.40;99.90
33927;DHT22;20485;50.992;5.550;2023-04-03T09:36:53;5.50;99.90
33927;DHT22;20485;50.992;5.550;2023-04-03T09:39:22;5.50;99.90
33927;DHT22;20485;50.992;5.550;2023-04-03T09:44:26;5.70;99.90
33927;DHT22;20485;50.992;5.550;2023-04-03T09:46:52;5.60;99.90
33927;DHT22;20485;50.992;5.550;2023-04-03T09:49:18;5.70;99.90
33927;DHT22;20485;50.992;5.550;2023-04-03T09:51:45;5.80;99.90
33927;DHT22;20485;50.992;5.550;2023-04-03T09:56:53;5.90;99.90
33927;DHT22;20485;50.992;5.550;2023-04-03T09:59:21;6.00;99.90
33927;DHT22;20485;50.992;5.550;2023-04-03T10:02:16;6.00;99.90
33927;DHT22;20485;50.992;5.550;2023-04-03T10:04:46;6.10;99.90
33927;DHT22;20485;50.992;5.550;2023-04-03T10:07:27;6.30;99.90
33927;DHT22;20485;50.992;5.550;2023-04-03T10:10:10;6.30;99.90
33927;DHT22;20485;50.992;5.550;2023-04-03T10:12:41;6.40;99.90
33927;DHT22;20485;50.992;5.550;2023-04-03T10:15:15;6.20;99.90
33927;DHT22;20485;50.992;5.550;2023-04-03T10:17:58;6.40;99.90
33927;DHT22;20485;50.992;5.550;2023-04-03T10:20:44;6.50;99.90
33927;DHT22;20485;50.992;5.550;2023-04-03T10:23:21;6.40;99.90
33927;DHT22;20485;50.992;5.550;2023-04-03T10:26:11;6.50;99.90
33927;DHT22;20485;50.992;5.550;2023-04-03T10:31:25;6.40;99.90
33927;DHT22;20485;50.992;5.550;2023-04-03T10:34:06;6.50;99.90
33927;DHT22;20485;50.992;5.550;2023-04-03T10:39:36;6.50;99.90
33927;DHT22;20485;50.992;5.550;2023-04-03T10:42:26;6.90;99.90
33927;DHT22;20485;50.992;5.550;2023-04-03T10:50:42;6.90;99.90
33927;DHT22;20485;50.992;5.550;2023-04-03T11:01:54;7.10;99.90
33927;DHT22;20485;50.992;5.550;2023-04-03T11:04:22;7.00;99.90
33927;DHT22;20485;50.992;5.550;2023-04-03T11:06:56;7.10;99.90
33927;DHT22;20485;50.992;5.550;2023-04-03T11:09:32;7.00;99.90
33927;DHT22;20485;50.992;5.550;2023-04-03T11:12:11;7.10;99.90
33927;DHT22;20485;50.992;5.550;2023-04-03T11:14:38;7.00;99.90
33927;DHT22;20485;50.992;5.550;2023-04-03T11:27:37;7.20;99.90
33927;DHT22;20485;50.992;5.550;2023-04-03T11:30:08;7.30;99.90
33927;DHT22;20485;50.992;5.550;2023-04-03T11:35:47;7.30;99.90
33927;DHT22;20485;50.992;5.550;2023-04-03T11:38:41;7.50;99.90
33927;DHT22;20485;50.992;5.550;2023-04-03T11:41:10;7.20;99.90
33927;DHT22;20485;50.992;5.550;2023-04-03T11:44:04;7.40;99.90
33927;DHT22;20485;50.992;5.550;2023-04-03T11:47:03;7.50;99.90
33927;DHT22;20485;50.992;5.550;2023-04-03T12:00:56;7.90;99.90
33927;DHT22;20485;50.992;5.550;2023-04-03T12:08:46;8.30;99.90
33927;DHT22;20485;50.992;5.550;2023-04-03T12:16:25;8.30;99.90
33927;DHT22;20485;50.992;5.550;2023-04-03T12:29:10;8.40;99.90
33927;DHT22;20485;50.992;5.550;2023-04-03T12:43:22;8.30;99.90
33927;DHT22;20485;50.992;5.550;2023-04-03T12:48:39;8.90;99.90
33927;DHT22;20485;50.992;5.550;2023-04-03T12:51:18;8.70;99.60
33927;DHT22;20485;50.992;5.550;2023-04-03T12:53:45;9.00;99.90
33927;DHT22;20485;50.992;5.550;2023-04-03T12:56:26;8.90;99.90
33927;DHT22;20485;50.992;5.550;2023-04-03T12:58:54;9.10;99.90
33927;DHT22;20485;50.992;5.550;2023-04-03T13:01:23;9.20;99.90
33927;DHT22;20485;50.992;5.550;2023-04-03T13:03:53;9.30;99.90
33927;DHT22;20485;50.992;5.550;2023-04-03T13:06:35;9.00;99.90
33927;DHT22;20485;50.992;5.550;2023-04-03T13:09:04;9.20;99.90
33927;DHT22;20485;50.992;5.550;2023-04-03T13:11:37;9.40;99.90
33927;DHT22;20485;50.992;5.550;2023-04-03T13:14:15;9.60;99.90
33927;DHT22;20485;50.992;5.550;2023-04-03T13:16:41;9.30;99.90
33927;DHT22;20485;50.992;5.550;2023-04-03T13:19:16;9.40;99.90
33927;DHT22;20485;50.992;5.550;2023-04-03T13:21:43;9.60;99.90
33927;DHT22;20485;50.992;5.550;2023-04-03T13:24:09;9.50;99.90
33927;DHT22;20485;50.992;5.550;2023-04-03T13:26:36;9.60;99.90
33927;DHT22;20485;50.992;5.550;2023-04-03T13:29:06;9.10;99.90
33927;DHT22;20485;50.992;5.550;2023-04-03T13:31:35;9.10;99.90
33927;DHT22;20485;50.992;5.550;2023-04-03T13:34:16;9.10;99.90
33927;DHT22;20485;50.992;5.550;2023-04-03T13:36:59;9.10;99.90
33927;DHT22;20485;50.992;5.550;2023-04-03T13:39:28;9.30;99.90
33927;DHT22;20485;50.992;5.550;2023-04-03T13:41:58;9.40;99.90
33927;DHT22;20485;50.992;5.550;2023-04-03T13:44:35;9.30;99.90
33927;DHT22;20485;50.992;5.550;2023-04-03T13:47:16;9.50;99.90
33927;DHT22;20485;50.992;5.550;2023-04-03T13:49:45;9.50;99.90
33927;DHT22;20485;50.992;5.550;2023-04-03T13:52:24;9.20;99.90
33927;DHT22;20485;50.992;5.550;2023-04-03T13:55:01;9.00;99.90
33927;DHT22;20485;50.992;5.550;2023-04-03T13:57:28;9.10;99.90
33927;DHT22;20485;50.992;5.550;2023-04-03T13:59:54;9.00;99.90
33927;DHT22;20485;50.992;5.550;2023-04-03T14:02:32;9.10;99.90
33927;DHT22;20485;50.992;5.550;2023-04-03T14:05:00;9.30;99.90
33927;DHT22;20485;50.992;5.550;2023-04-03T14:07:28;9.10;99.90
33927;DHT22;20485;50.992;5.550;2023-04-03T14:09:55;9.20;99.90
33927;DHT22;20485;50.992;5.550;2023-04-03T14:12:31;9.20;99.90
33927;DHT22;20485;50.992;5.550;2023-04-03T14:15:00;9.20;99.90
33927;DHT22;20485;50.992;5.550;2023-04-03T14:17:27;9.20;99.90
33927;DHT22;20485;50.992;5.550;2023-04-03T14:19:55;9.40;99.90
33927;DHT22;20485;50.992;5.550;2023-04-03T14:22:27;9.40;99.90
33927;DHT22;20485;50.992;5.550;2023-04-03T14:24:53;9.20;99.90
33927;DHT22;20485;50.992;5.550;2023-04-03T14:27:40;9.20;99.90
33927;DHT22;20485;50.992;5.550;2023-04-03T14:30:11;9.20;99.90
33927;DHT22;20485;50.992;5.550;2023-04-03T14:32:38;9.40;99.90
33927;DHT22;20485;50.992;5.550;2023-04-03T14:35:04;9.60;99.90
33927;DHT22;20485;50.992;5.550;2023-04-03T14:37:31;9.70;99.90
33927;DHT22;20485;50.992;5.550;2023-04-03T14:39:58;9.60;99.90
33927;DHT22;20485;50.992;5.550;2023-04-03T14:42:36;9.80;99.90
33927;DHT22;20485;50.992;5.550;2023-04-03T14:45:06;9.70;99.90
33927;DHT22;20485;50.992;5.550;2023-04-03T14:47:32;9.80;99.90
33927;DHT22;20485;50.992;5.550;2023-04-03T14:50:03;10.00;99.90
33927;DHT22;20485;50.992;5.550;2023-04-03T14:52:32;10.20;99.90
33927;DHT22;20485;50.992;5.550;2023-04-03T14:55:00;9.80;99.30
33927;DHT22;20485;50.992;5.550;2023-04-03T14:57:27;9.70;99.90
33927;DHT22;20485;50.992;5.550;2023-04-03T14:59:53;9.50;99.90
33927;DHT22;20485;50.992;5.550;2023-04-03T15:04:58;9.70;99.70
33927;DHT22;20485;50.992;5.550;2023-04-03T15:07:26;9.70;98.70
33927;DHT22;20485;50.992;5.550;2023-04-03T15:09:53;9.80;99.50
33927;DHT22;20485;50.992;5.550;2023-04-03T15:12:21;9.70;99.00
33927;DHT22;20485;50.992;5.550;2023-04-03T15:14:47;9.80;99.90
33927;DHT22;20485;50.992;5.550;2023-04-03T15:17:21;9.70;99.50
33927;DHT22;20485;50.992;5.550;2023-04-03T15:19:48;9.70;99.90
33927;DHT22;20485;50.992;5.550;2023-04-03T15:22:16;9.90;99.90
33927;DHT22;20485;50.992;5.550;2023-04-03T15:24:43;9.70;99.90
33927;DHT22;20485;50.992;5.550;2023-04-03T15:27:10;9.40;99.90
33927;DHT22;20485;50.992;5.550;2023-04-03T15:29:37;9.10;99.40
33927;DHT22;20485;50.992;5.550;2023-04-03T15:32:03;9.30;99.90
33927;DHT22;20485;50.992;5.550;2023-04-03T15:34:29;9.40;99.60
33927;DHT22;20485;50.992;5.550;2023-04-03T15:36:55;9.40;99.20
33927;DHT22;20485;50.992;5.550;2023-04-03T15:39:21;9.20;99.00
33927;DHT22;20485;50.992;5.550;2023-04-03T15:41:48;9.30;98.70
33927;DHT22;20485;50.992;5.550;2023-04-03T15:44:14;9.30;99.60
33927;DHT22;20485;50.992;5.550;2023-04-03T15:46:43;9.40;98.80
33927;DHT22;20485;50.992;5.550;2023-04-03T15:49:08;9.40;98.60
33927;DHT22;20485;50.992;5.550;2023-04-03T15:51:35;9.30;98.30
33927;DHT22;20485;50.992;5.550;2023-04-03T15:54:01;9.40;98.30
33927;DHT22;20485;50.992;5.550;2023-04-03T15:56:26;9.10;98.70
33927;DHT22;20485;50.992;5.550;2023-04-03T15:58:52;9.10;98.50
33927;DHT22;20485;50.992;5.550;2023-04-03T16:01:18;9.00;98.40
33927;DHT22;20485;50.992;5.550;2023-04-03T16:03:44;9.00;98.80
33927;DHT22;20485;50.992;5.550;2023-04-03T16:06:14;9.00;98.80
33927;DHT22;20485;50.992;5.550;2023-04-03T16:08:50;8.90;99.50
33927;DHT22;20485;50.992;5.550;2023-04-03T16:11:24;9.00;98.70
33927;DHT22;20485;50.992;5.550;2023-04-03T16:13:50;9.20;98.10
33927;DHT22;20485;50.992;5.550;2023-04-03T16:16:16;9.30;97.60
33927;DHT22;20485;50.992;5.550;2023-04-03T16:18:42;9.80;98.10
33927;DHT22;20485;50.992;5.550;2023-04-03T16:21:08;10.00;96.40
33927;DHT22;20485;50.992;5.550;2023-04-03T16:23:34;10.00;98.00
33927;DHT22;20485;50.992;5.550;2023-04-03T16:26:00;10.00;98.40
33927;DHT22;20485;50.992;5.550;2023-04-03T16:28:26;9.50;98.40
33927;DHT22;20485;50.992;5.550;2023-04-03T16:30:51;8.90;97.60
33927;DHT22;20485;50.992;5.550;2023-04-03T16:33:17;8.70;97.90
33927;DHT22;20485;50.992;5.550;2023-04-03T16:35:46;8.80;98.10
33927;DHT22;20485;50.992;5.550;2023-04-03T16:38:14;8.60;98.10
33927;DHT22;20485;50.992;5.550;2023-04-03T16:40:41;8.70;99.80
33927;DHT22;20485;50.992;5.550;2023-04-03T16:43:06;8.80;98.60
33927;DHT22;20485;50.992;5.550;2023-04-03T16:45:32;8.80;99.50
33927;DHT22;20485;50.992;5.550;2023-04-03T16:47:58;8.70;99.20
33927;DHT22;20485;50.992;5.550;2023-04-03T16:50:24;8.50;98.70
33927;DHT22;20485;50.992;5.550;2023-04-03T16:52:49;8.50;99.00
33927;DHT22;20485;50.992;5.550;2023-04-03T16:55:15;8.50;99.10
33927;DHT22;20485;50.992;5.550;2023-04-03T16:57:41;8.40;99.00
33927;DHT22;20485;50.992;5.550;2023-04-03T17:00:07;8.40;99.90
33927;DHT22;20485;50.992;5.550;2023-04-03T17:02:33;8.40;99.90
33927;DHT22;20485;50.992;5.550;2023-04-03T17:04:59;8.20;99.90
33927;DHT22;20485;50.992;5.550;2023-04-03T17:07:25;8.10;99.90
33927;DHT22;20485;50.992;5.550;2023-04-03T17:09:52;8.10;99.90
33927;DHT22;20485;50.992;5.550;2023-04-03T17:12:19;8.00;99.90
33927;DHT22;20485;50.992;5.550;2023-04-03T17:14:45;7.90;99.80
33927;DHT22;20485;50.992;5.550;2023-04-03T17:17:13;7.90;99.90
33927;DHT22;20485;50.992;5.550;2023-04-03T17:19:39;7.90;99.90
33927;DHT22;20485;50.992;5.550;2023-04-03T17:22:08;7.80;99.90
33927;DHT22;20485;50.992;5.550;2023-04-03T17:24:34;7.70;99.90
33927;DHT22;20485;50.992;5.550;2023-04-03T17:27:01;7.60;99.90
33927;DHT22;20485;50.992;5.550;2023-04-03T17:29:26;7.60;99.90
33927;DHT22;20485;50.992;5.550;2023-04-03T17:31:52;7.60;99.90
33927;DHT22;20485;50.992;5.550;2023-04-03T17:34:18;7.50;99.90
33927;DHT22;20485;50.992;5.550;2023-04-03T17:36:44;7.50;99.90
33927;DHT22;20485;50.992;5.550;2023-04-03T17:39:10;7.40;99.90